sensor_id;sensor_type;location;lat;lon;timestamp;P1;durP1;ratioP1;P2;durP2;ratioP2
22916;SDS011;11624;53.250;7.456;2024-02-26T00:01:22;29.57;;;11.47;;
22916;SDS011;11624;53.250;7.456;2024-02-26T00:03:51;28.03;;;11.53;;
22916;SDS011;11624;53.250;7.456;2024-02-26T00:06:20;30.60;;;12.03;;
22916;SDS011;11624;53.250;7.456;2024-02-26T00:08:49;28.83;;;11.80;;
22916;SDS011;11624;53.250;7.456;2024-02-26T00:11:19;29.40;;;12.63;;
22916;SDS011;11624;53.250;7.456;2024-02-26T00:13:47;29.83;;;11.93;;
22916;SDS011;11624;53.250;7.456;2024-02-26T00:16:16;32.93;;;12.60;;
22916;SDS011;11624;53.250;7.456;2024-02-26T00:18:44;30.57;;;12.27;;
22916;SDS011;11624;53.250;7.456;2024-02-26T00:21:16;30.40;;;13.13;;
22916;SDS011;11624;53.250;7.456;2024-02-26T00:23:45;29.87;;;12.73;;
22916;SDS011;11624;53.250;7.456;2024-02-26T00:26:13;30.10;;;12.37;;
22916;SDS011;11624;53.250;7.456;2024-02-26T00:28:43;29.93;;;12.90;;
22916;SDS011;11624;53.250;7.456;2024-02-26T00:31:11;36.03;;;13.30;;
22916;SDS011;11624;53.250;7.456;2024-02-26T00:33:40;41.20;;;13.77;;
22916;SDS011;11624;53.250;7.456;2024-02-26T00:36:09;45.57;;;13.60;;
22916;SDS011;11624;53.250;7.456;2024-02-26T00:38:37;45.07;;;13.37;;
22916;SDS011;11624;53.250;7.456;2024-02-26T00:41:07;38.93;;;14.27;;
22916;SDS011;11624;53.250;7.456;2024-02-26T00:43:35;50.23;;;14.20;;
22916;SDS011;11624;53.250;7.456;2024-02-26T00:46:07;52.13;;;14.07;;
22916;SDS011;11624;53.250;7.456;2024-02-26T00:48:35;52.87;;;15.27;;
22916;SDS011;11624;53.250;7.456;2024-02-26T00:51:05;40.60;;;14.23;;
22916;SDS011;11624;53.250;7.456;2024-02-26T00:53:34;40.50;;;14.30;;
22916;SDS011;11624;53.250;7.456;2024-02-26T00:56:03;40.80;;;14.53;;
22916;SDS011;11624;53.250;7.456;2024-02-26T00:58:32;41.33;;;13.13;;
22916;SDS011;11624;53.250;7.456;2024-02-26T01:01:00;38.40;;;13.43;;
22916;SDS011;11624;53.250;7.456;2024-02-26T01:03:31;33.63;;;13.43;;
22916;SDS011;11624;53.250;7.456;2024-02-26T01:05:59;37.73;;;14.97;;
22916;SDS011;11624;53.250;7.456;2024-02-26T01:08:28;35.07;;;14.23;;
22916;SDS011;11624;53.250;7.456;2024-02-26T01:10:59;37.53;;;15.33;;
22916;SDS011;11624;53.250;7.456;2024-02-26T01:13:27;34.67;;;14.13;;
22916;SDS011;11624;53.250;7.456;2024-02-26T01:15:56;39.40;;;14.10;;
22916;SDS011;11624;53.250;7.456;2024-02-26T01:18:24;35.13;;;14.53;;
22916;SDS011;11624;53.250;7.456;2024-02-26T01:20:54;34.90;;;14.27;;
22916;SDS011;11624;53.250;7.456;2024-02-26T01:23:23;38.07;;;14.50;;
22916;SDS011;11624;53.250;7.456;2024-02-26T01:25:51;33.97;;;14.23;;
22916;SDS011;11624;53.250;7.456;2024-02-26T01:28:20;33.17;;;13.00;;
22916;SDS011;11624;53.250;7.456;2024-02-26T01:30:48;34.17;;;13.83;;
22916;SDS011;11624;53.250;7.456;2024-02-26T01:33:17;35.93;;;13.67;;
22916;SDS011;11624;53.250;7.456;2024-02-26T01:35:45;35.83;;;13.83;;
22916;SDS011;11624;53.250;7.456;2024-02-26T01:38:15;36.40;;;14.57;;
22916;SDS011;11624;53.250;7.456;2024-02-26T01:40:44;33.73;;;13.83;;
22916;SDS011;11624;53.250;7.456;2024-02-26T01:43:13;33.40;;;13.73;;
22916;SDS011;11624;53.250;7.456;2024-02-26T01:45:41;37.93;;;13.53;;
22916;SDS011;11624;53.250;7.456;2024-02-26T01:48:10;32.37;;;12.90;;
22916;SDS011;11624;53.250;7.456;2024-02-26T01:50:38;32.50;;;13.10;;
22916;SDS011;11624;53.250;7.456;2024-02-26T01:53:08;33.13;;;13.77;;
22916;SDS011;11624;53.250;7.456;2024-02-26T01:55:38;34.20;;;13.53;;
22916;SDS011;11624;53.250;7.456;2024-02-26T01:58:08;31.60;;;14.07;;
22916;SDS011;11624;53.250;7.456;2024-02-26T02:00:37;32.77;;;12.77;;
22916;SDS011;11624;53.250;7.456;2024-02-26T02:03:06;30.50;;;13.17;;
22916;SDS011;11624;53.250;7.456;2024-02-26T02:05:35;28.83;;;12.63;;
22916;SDS011;11624;53.250;7.456;2024-02-26T02:08:09;30.87;;;13.37;;
22916;SDS011;11624;53.250;7.456;2024-02-26T02:10:40;31.20;;;12.57;;
22916;SDS011;11624;53.250;7.456;2024-02-26T02:13:10;25.37;;;12.40;;
22916;SDS011;11624;53.250;7.456;2024-02-26T02:15:38;27.70;;;12.53;;
22916;SDS011;11624;53.250;7.456;2024-02-26T02:18:07;28.57;;;12.20;;
22916;SDS011;11624;53.250;7.456;2024-02-26T02:20:37;30.17;;;11.40;;
22916;SDS011;11624;53.250;7.456;2024-02-26T02:23:05;27.17;;;11.90;;
22916;SDS011;11624;53.250;7.456;2024-02-26T02:25:34;27.80;;;11.40;;
22916;SDS011;11624;53.250;7.456;2024-02-26T02:28:02;27.63;;;11.50;;
22916;SDS011;11624;53.250;7.456;2024-02-26T02:30:32;26.53;;;11.47;;
22916;SDS011;11624;53.250;7.456;2024-02-26T02:33:02;29.90;;;11.73;;
22916;SDS011;11624;53.250;7.456;2024-02-26T02:35:31;26.47;;;11.30;;
22916;SDS011;11624;53.250;7.456;2024-02-26T02:38:02;24.47;;;10.27;;
22916;SDS011;11624;53.250;7.456;2024-02-26T02:40:31;22.97;;;10.50;;
22916;SDS011;11624;53.250;7.456;2024-02-26T02:42:59;23.97;;;10.13;;
22916;SDS011;11624;53.250;7.456;2024-02-26T02:45:28;25.43;;;9.87;;
22916;SDS011;11624;53.250;7.456;2024-02-26T02:47:57;23.50;;;10.17;;
22916;SDS011;11624;53.250;7.456;2024-02-26T02:50:25;22.80;;;9.37;;
22916;SDS011;11624;53.250;7.456;2024-02-26T02:52:55;23.50;;;10.10;;
22916;SDS011;11624;53.250;7.456;2024-02-26T02:55:25;21.90;;;9.87;;
22916;SDS011;11624;53.250;7.456;2024-02-26T02:57:53;21.80;;;8.97;;
22916;SDS011;11624;53.250;7.456;2024-02-26T03:00:22;21.80;;;9.30;;
22916;SDS011;11624;53.250;7.456;2024-02-26T03:02:51;21.63;;;8.50;;
22916;SDS011;11624;53.250;7.456;2024-02-26T03:05:19;22.43;;;8.63;;
22916;SDS011;11624;53.250;7.456;2024-02-26T03:07:48;20.63;;;8.97;;
22916;SDS011;11624;53.250;7.456;2024-02-26T03:10:16;20.33;;;8.80;;
22916;SDS011;11624;53.250;7.456;2024-02-26T03:12:46;18.57;;;8.53;;
22916;SDS011;11624;53.250;7.456;2024-02-26T03:15:15;18.67;;;7.90;;
22916;SDS011;11624;53.250;7.456;2024-02-26T03:17:43;20.00;;;8.33;;
22916;SDS011;11624;53.250;7.456;2024-02-26T03:20:12;23.77;;;8.77;;
22916;SDS011;11624;53.250;7.456;2024-02-26T03:22:41;20.10;;;8.30;;
22916;SDS011;11624;53.250;7.456;2024-02-26T03:25:09;18.60;;;8.13;;
22916;SDS011;11624;53.250;7.456;2024-02-26T03:27:38;20.20;;;7.47;;
22916;SDS011;11624;53.250;7.456;2024-02-26T03:30:08;17.63;;;7.50;;
22916;SDS011;11624;53.250;7.456;2024-02-26T03:32:37;19.03;;;7.37;;
22916;SDS011;11624;53.250;7.456;2024-02-26T03:35:06;17.13;;;7.33;;
22916;SDS011;11624;53.250;7.456;2024-02-26T03:37:35;19.40;;;6.97;;
22916;SDS011;11624;53.250;7.456;2024-02-26T03:40:04;17.30;;;6.83;;
22916;SDS011;11624;53.250;7.456;2024-02-26T03:42:33;17.83;;;7.27;;
22916;SDS011;11624;53.250;7.456;2024-02-26T03:45:02;16.93;;;6.77;;
22916;SDS011;11624;53.250;7.456;2024-02-26T03:47:32;15.83;;;5.97;;
22916;SDS011;11624;53.250;7.456;2024-02-26T03:50:01;16.50;;;6.13;;
22916;SDS011;11624;53.250;7.456;2024-02-26T03:52:30;16.37;;;6.20;;
22916;SDS011;11624;53.250;7.456;2024-02-26T03:54:59;16.97;;;6.13;;
22916;SDS011;11624;53.250;7.456;2024-02-26T03:57:27;15.00;;;5.77;;
22916;SDS011;11624;53.250;7.456;2024-02-26T03:59:56;15.30;;;5.97;;
22916;SDS011;11624;53.250;7.456;2024-02-26T04:02:24;14.87;;;5.90;;
22916;SDS011;11624;53.250;7.456;2024-02-26T04:04:55;14.53;;;5.90;;
22916;SDS011;11624;53.250;7.456;2024-02-26T04:07:23;15.83;;;5.60;;
22916;SDS011;11624;53.250;7.456;2024-02-26T04:09:52;15.80;;;5.87;;
22916;SDS011;11624;53.250;7.456;2024-02-26T04:12:20;16.10;;;6.23;;
22916;SDS011;11624;53.250;7.456;2024-02-26T04:14:49;15.83;;;6.23;;
22916;SDS011;11624;53.250;7.456;2024-02-26T04:17:17;14.73;;;5.57;;
22916;SDS011;11624;53.250;7.456;2024-02-26T04:19:46;14.47;;;5.60;;
22916;SDS011;11624;53.250;7.456;2024-02-26T04:22:16;17.80;;;6.00;;
22916;SDS011;11624;53.250;7.456;2024-02-26T04:24:44;16.13;;;5.90;;
22916;SDS011;11624;53.250;7.456;2024-02-26T04:27:12;15.70;;;6.40;;
22916;SDS011;11624;53.250;7.456;2024-02-26T04:29:41;15.07;;;6.07;;
22916;SDS011;11624;53.250;7.456;2024-02-26T04:32:09;15.37;;;5.70;;
22916;SDS011;11624;53.250;7.456;2024-02-26T04:34:38;15.60;;;6.27;;
22916;SDS011;11624;53.250;7.456;2024-02-26T04:37:06;15.23;;;5.93;;
22916;SDS011;11624;53.250;7.456;2024-02-26T04:39:36;14.73;;;5.83;;
22916;SDS011;11624;53.250;7.456;2024-02-26T04:42:05;17.43;;;6.03;;
22916;SDS011;11624;53.250;7.456;2024-02-26T04:44:34;15.53;;;6.07;;
22916;SDS011;11624;53.250;7.456;2024-02-26T04:47:02;15.63;;;6.00;;
22916;SDS011;11624;53.250;7.456;2024-02-26T04:49:31;17.00;;;5.50;;
22916;SDS011;11624;53.250;7.456;2024-02-26T04:52:00;15.50;;;5.67;;
22916;SDS011;11624;53.250;7.456;2024-02-26T04:54:29;14.67;;;5.37;;
22916;SDS011;11624;53.250;7.456;2024-02-26T04:56:59;16.77;;;5.63;;
22916;SDS011;11624;53.250;7.456;2024-02-26T04:59:27;15.47;;;6.13;;
22916;SDS011;11624;53.250;7.456;2024-02-26T05:01:56;16.33;;;5.33;;
22916;SDS011;11624;53.250;7.456;2024-02-26T05:04:24;14.57;;;5.03;;
22916;SDS011;11624;53.250;7.456;2024-02-26T05:06:53;14.30;;;5.07;;
22916;SDS011;11624;53.250;7.456;2024-02-26T05:09:21;13.50;;;4.57;;
22916;SDS011;11624;53.250;7.456;2024-02-26T05:11:50;16.03;;;5.10;;
22916;SDS011;11624;53.250;7.456;2024-02-26T05:14:20;13.47;;;5.23;;
22916;SDS011;11624;53.250;7.456;2024-02-26T05:16:49;16.80;;;5.13;;
22916;SDS011;11624;53.250;7.456;2024-02-26T05:19:17;13.93;;;4.70;;
22916;SDS011;11624;53.250;7.456;2024-02-26T05:21:46;14.63;;;5.17;;
22916;SDS011;11624;53.250;7.456;2024-02-26T05:24:17;15.33;;;4.67;;
22916;SDS011;11624;53.250;7.456;2024-02-26T05:26:49;13.80;;;4.80;;
22916;SDS011;11624;53.250;7.456;2024-02-26T05:29:18;14.83;;;4.97;;
22916;SDS011;11624;53.250;7.456;2024-02-26T05:31:47;14.50;;;4.63;;
22916;SDS011;11624;53.250;7.456;2024-02-26T05:34:16;13.33;;;5.00;;
22916;SDS011;11624;53.250;7.456;2024-02-26T05:36:45;13.27;;;4.20;;
22916;SDS011;11624;53.250;7.456;2024-02-26T05:39:13;12.43;;;4.10;;
22916;SDS011;11624;53.250;7.456;2024-02-26T05:41:46;16.63;;;4.50;;
22916;SDS011;11624;53.250;7.456;2024-02-26T05:44:16;13.33;;;5.17;;
22916;SDS011;11624;53.250;7.456;2024-02-26T05:46:44;14.63;;;4.60;;
22916;SDS011;11624;53.250;7.456;2024-02-26T05:49:14;11.63;;;3.97;;
22916;SDS011;11624;53.250;7.456;2024-02-26T05:51:43;13.13;;;4.60;;
22916;SDS011;11624;53.250;7.456;2024-02-26T05:54:11;10.73;;;4.03;;
22916;SDS011;11624;53.250;7.456;2024-02-26T05:56:40;10.73;;;3.70;;
22916;SDS011;11624;53.250;7.456;2024-02-26T05:59:09;13.60;;;4.20;;
22916;SDS011;11624;53.250;7.456;2024-02-26T06:01:37;11.97;;;4.00;;
22916;SDS011;11624;53.250;7.456;2024-02-26T06:04:06;12.97;;;4.20;;
22916;SDS011;11624;53.250;7.456;2024-02-26T06:06:36;12.00;;;4.03;;
22916;SDS011;11624;53.250;7.456;2024-02-26T06:09:09;10.10;;;3.47;;
22916;SDS011;11624;53.250;7.456;2024-02-26T06:11:38;11.17;;;3.93;;
22916;SDS011;11624;53.250;7.456;2024-02-26T06:14:06;12.80;;;4.27;;
22916;SDS011;11624;53.250;7.456;2024-02-26T06:16:35;10.63;;;3.60;;
22916;SDS011;11624;53.250;7.456;2024-02-26T06:19:03;11.30;;;3.93;;
22916;SDS011;11624;53.250;7.456;2024-02-26T06:21:33;10.17;;;3.80;;
22916;SDS011;11624;53.250;7.456;2024-02-26T06:24:03;12.50;;;4.13;;
22916;SDS011;11624;53.250;7.456;2024-02-26T06:26:33;10.43;;;3.83;;
22916;SDS011;11624;53.250;7.456;2024-02-26T06:29:01;9.77;;;3.60;;
22916;SDS011;11624;53.250;7.456;2024-02-26T06:31:30;9.40;;;3.40;;
22916;SDS011;11624;53.250;7.456;2024-02-26T06:33:59;8.60;;;3.40;;
22916;SDS011;11624;53.250;7.456;2024-02-26T06:36:28;9.17;;;3.30;;
22916;SDS011;11624;53.250;7.456;2024-02-26T06:38:58;8.03;;;3.40;;
22916;SDS011;11624;53.250;7.456;2024-02-26T06:41:28;8.53;;;3.10;;
22916;SDS011;11624;53.250;7.456;2024-02-26T06:43:56;8.03;;;3.10;;
22916;SDS011;11624;53.250;7.456;2024-02-26T06:46:25;8.37;;;3.07;;
22916;SDS011;11624;53.250;7.456;2024-02-26T06:48:55;8.03;;;3.10;;
22916;SDS011;11624;53.250;7.456;2024-02-26T06:51:24;10.23;;;3.57;;
22916;SDS011;11624;53.250;7.456;2024-02-26T06:53:52;9.17;;;3.10;;
22916;SDS011;11624;53.250;7.456;2024-02-26T06:56:21;10.33;;;3.40;;
22916;SDS011;11624;53.250;7.456;2024-02-26T06:58:51;10.87;;;3.33;;
22916;SDS011;11624;53.250;7.456;2024-02-26T07:01:19;8.57;;;3.07;;
22916;SDS011;11624;53.250;7.456;2024-02-26T07:03:48;7.67;;;3.10;;
22916;SDS011;11624;53.250;7.456;2024-02-26T07:06:16;8.93;;;3.13;;
22916;SDS011;11624;53.250;7.456;2024-02-26T07:08:45;9.03;;;3.67;;
22916;SDS011;11624;53.250;7.456;2024-02-26T07:11:13;8.90;;;2.97;;
22916;SDS011;11624;53.250;7.456;2024-02-26T07:13:42;11.33;;;3.67;;
22916;SDS011;11624;53.250;7.456;2024-02-26T07:16:12;9.13;;;3.40;;
22916;SDS011;11624;53.250;7.456;2024-02-26T07:18:40;9.47;;;3.50;;
22916;SDS011;11624;53.250;7.456;2024-02-26T07:21:11;9.77;;;3.60;;
22916;SDS011;11624;53.250;7.456;2024-02-26T07:23:39;11.07;;;3.80;;
22916;SDS011;11624;53.250;7.456;2024-02-26T07:26:09;8.23;;;3.23;;
22916;SDS011;11624;53.250;7.456;2024-02-26T07:28:38;10.07;;;3.60;;
22916;SDS011;11624;53.250;7.456;2024-02-26T07:31:06;7.20;;;2.97;;
22916;SDS011;11624;53.250;7.456;2024-02-26T07:33:36;9.27;;;3.73;;
22916;SDS011;11624;53.250;7.456;2024-02-26T07:36:05;9.50;;;3.63;;
22916;SDS011;11624;53.250;7.456;2024-02-26T07:38:34;11.13;;;3.57;;
22916;SDS011;11624;53.250;7.456;2024-02-26T07:41:09;9.83;;;3.70;;
22916;SDS011;11624;53.250;7.456;2024-02-26T07:43:39;10.23;;;3.70;;
22916;SDS011;11624;53.250;7.456;2024-02-26T07:46:07;10.37;;;3.47;;
22916;SDS011;11624;53.250;7.456;2024-02-26T07:48:40;8.63;;;3.13;;
22916;SDS011;11624;53.250;7.456;2024-02-26T07:51:11;10.03;;;3.63;;
22916;SDS011;11624;53.250;7.456;2024-02-26T07:53:40;9.93;;;3.70;;
22916;SDS011;11624;53.250;7.456;2024-02-26T07:56:09;10.73;;;3.40;;
22916;SDS011;11624;53.250;7.456;2024-02-26T07:58:38;10.47;;;3.50;;
22916;SDS011;11624;53.250;7.456;2024-02-26T08:01:06;9.63;;;3.27;;
22916;SDS011;11624;53.250;7.456;2024-02-26T08:03:35;10.80;;;3.83;;
22916;SDS011;11624;53.250;7.456;2024-02-26T08:06:07;10.00;;;3.70;;
22916;SDS011;11624;53.250;7.456;2024-02-26T08:08:36;10.07;;;3.87;;
22916;SDS011;11624;53.250;7.456;2024-02-26T08:11:05;10.17;;;4.07;;
22916;SDS011;11624;53.250;7.456;2024-02-26T08:13:34;10.47;;;3.83;;
22916;SDS011;11624;53.250;7.456;2024-02-26T08:16:03;10.50;;;3.97;;
22916;SDS011;11624;53.250;7.456;2024-02-26T08:18:32;12.27;;;3.80;;
22916;SDS011;11624;53.250;7.456;2024-02-26T08:21:00;11.90;;;3.50;;
22916;SDS011;11624;53.250;7.456;2024-02-26T08:23:31;9.60;;;3.50;;
22916;SDS011;11624;53.250;7.456;2024-02-26T08:25:59;9.03;;;3.30;;
22916;SDS011;11624;53.250;7.456;2024-02-26T08:28:28;10.23;;;4.03;;
22916;SDS011;11624;53.250;7.456;2024-02-26T08:30:56;9.93;;;3.93;;
22916;SDS011;11624;53.250;7.456;2024-02-26T08:33:25;11.93;;;3.77;;
22916;SDS011;11624;53.250;7.456;2024-02-26T08:35:53;11.20;;;3.90;;
22916;SDS011;11624;53.250;7.456;2024-02-26T08:38:22;10.23;;;3.50;;
22916;SDS011;11624;53.250;7.456;2024-02-26T08:40:52;9.70;;;3.83;;
22916;SDS011;11624;53.250;7.456;2024-02-26T08:43:20;11.20;;;3.93;;
22916;SDS011;11624;53.250;7.456;2024-02-26T08:45:49;11.53;;;3.93;;
22916;SDS011;11624;53.250;7.456;2024-02-26T08:48:17;11.70;;;3.80;;
22916;SDS011;11624;53.250;7.456;2024-02-26T08:50:46;11.73;;;3.93;;
22916;SDS011;11624;53.250;7.456;2024-02-26T08:53:14;12.20;;;3.93;;
22916;SDS011;11624;53.250;7.456;2024-02-26T08:55:51;11.13;;;3.97;;
22916;SDS011;11624;53.250;7.456;2024-02-26T08:58:20;12.50;;;4.30;;
22916;SDS011;11624;53.250;7.456;2024-02-26T09:00:48;11.75;;;4.32;;
22916;SDS011;11624;53.250;7.456;2024-02-26T09:03:17;11.83;;;4.43;;
22916;SDS011;11624;53.250;7.456;2024-02-26T09:05:45;11.20;;;4.10;;
22916;SDS011;11624;53.250;7.456;2024-02-26T09:08:14;11.73;;;4.20;;
22916;SDS011;11624;53.250;7.456;2024-02-26T09:10:42;11.77;;;3.67;;
22916;SDS011;11624;53.250;7.456;2024-02-26T09:13:12;12.00;;;4.55;;
22916;SDS011;11624;53.250;7.456;2024-02-26T09:15:40;11.47;;;4.50;;
22916;SDS011;11624;53.250;7.456;2024-02-26T09:18:09;11.87;;;4.23;;
22916;SDS011;11624;53.250;7.456;2024-02-26T09:20:38;12.10;;;4.93;;
22916;SDS011;11624;53.250;7.456;2024-02-26T09:23:06;11.60;;;4.57;;
22916;SDS011;11624;53.250;7.456;2024-02-26T09:25:35;12.35;;;4.03;;
22916;SDS011;11624;53.250;7.456;2024-02-26T09:28:03;13.17;;;4.93;;
22916;SDS011;11624;53.250;7.456;2024-02-26T09:30:34;12.40;;;4.60;;
22916;SDS011;11624;53.250;7.456;2024-02-26T09:33:02;12.85;;;4.53;;
22916;SDS011;11624;53.250;7.456;2024-02-26T09:35:31;13.20;;;4.55;;
22916;SDS011;11624;53.250;7.456;2024-02-26T09:38:00;11.67;;;4.60;;
22916;SDS011;11624;53.250;7.456;2024-02-26T09:40:30;12.50;;;4.60;;
22916;SDS011;11624;53.250;7.456;2024-02-26T09:42:59;12.82;;;4.57;;
22916;SDS011;11624;53.250;7.456;2024-02-26T09:45:28;13.60;;;4.70;;
22916;SDS011;11624;53.250;7.456;2024-02-26T09:47:59;13.70;;;5.15;;
22916;SDS011;11624;53.250;7.456;2024-02-26T09:50:32;12.52;;;4.20;;
22916;SDS011;11624;53.250;7.456;2024-02-26T09:53:01;12.30;;;4.20;;
22916;SDS011;11624;53.250;7.456;2024-02-26T09:55:30;11.75;;;4.53;;
22916;SDS011;11624;53.250;7.456;2024-02-26T09:57:59;11.68;;;4.53;;
22916;SDS011;11624;53.250;7.456;2024-02-26T10:00:28;12.90;;;4.60;;
22916;SDS011;11624;53.250;7.456;2024-02-26T10:03:03;12.73;;;4.40;;
22916;SDS011;11624;53.250;7.456;2024-02-26T10:05:33;12.43;;;4.70;;
22916;SDS011;11624;53.250;7.456;2024-02-26T10:08:03;12.07;;;4.60;;
22916;SDS011;11624;53.250;7.456;2024-02-26T10:10:32;12.38;;;4.35;;
22916;SDS011;11624;53.250;7.456;2024-02-26T10:13:01;11.50;;;4.10;;
22916;SDS011;11624;53.250;7.456;2024-02-26T10:15:36;12.07;;;4.40;;
22916;SDS011;11624;53.250;7.456;2024-02-26T10:18:06;14.85;;;4.70;;
22916;SDS011;11624;53.250;7.456;2024-02-26T10:20:35;12.25;;;4.28;;
22916;SDS011;11624;53.250;7.456;2024-02-26T10:23:04;11.85;;;4.18;;
22916;SDS011;11624;53.250;7.456;2024-02-26T10:25:33;10.63;;;3.97;;
22916;SDS011;11624;53.250;7.456;2024-02-26T10:28:01;12.27;;;4.10;;
22916;SDS011;11624;53.250;7.456;2024-02-26T10:30:30;16.13;;;4.50;;
22916;SDS011;11624;53.250;7.456;2024-02-26T10:32:58;11.48;;;4.00;;
22916;SDS011;11624;53.250;7.456;2024-02-26T10:35:29;11.60;;;4.22;;
22916;SDS011;11624;53.250;7.456;2024-02-26T10:38:00;11.68;;;4.10;;
22916;SDS011;11624;53.250;7.456;2024-02-26T10:40:29;11.25;;;4.32;;
22916;SDS011;11624;53.250;7.456;2024-02-26T10:42:57;12.00;;;4.25;;
22916;SDS011;11624;53.250;7.456;2024-02-26T10:45:26;11.32;;;3.97;;
22916;SDS011;11624;53.250;7.456;2024-02-26T10:47:55;10.15;;;3.85;;
22916;SDS011;11624;53.250;7.456;2024-02-26T10:50:23;10.38;;;3.65;;
22916;SDS011;11624;53.250;7.456;2024-02-26T10:52:53;9.65;;;3.53;;
22916;SDS011;11624;53.250;7.456;2024-02-26T10:55:23;8.63;;;3.47;;
22916;SDS011;11624;53.250;7.456;2024-02-26T10:57:53;8.88;;;3.42;;
22916;SDS011;11624;53.250;7.456;2024-02-26T11:00:22;10.57;;;3.60;;
22916;SDS011;11624;53.250;7.456;2024-02-26T11:02:51;10.43;;;3.72;;
22916;SDS011;11624;53.250;7.456;2024-02-26T11:05:21;11.25;;;3.58;;
22916;SDS011;11624;53.250;7.456;2024-02-26T11:07:50;8.93;;;3.38;;
22916;SDS011;11624;53.250;7.456;2024-02-26T11:10:22;8.05;;;3.17;;
22916;SDS011;11624;53.250;7.456;2024-02-26T11:12:52;9.40;;;3.20;;
22916;SDS011;11624;53.250;7.456;2024-02-26T11:15:23;9.63;;;3.35;;
22916;SDS011;11624;53.250;7.456;2024-02-26T11:17:52;11.23;;;3.55;;
22916;SDS011;11624;53.250;7.456;2024-02-26T11:20:21;12.77;;;3.85;;
22916;SDS011;11624;53.250;7.456;2024-02-26T11:22:50;10.43;;;3.40;;
22916;SDS011;11624;53.250;7.456;2024-02-26T11:25:20;8.63;;;3.33;;
22916;SDS011;11624;53.250;7.456;2024-02-26T11:27:50;10.68;;;3.53;;
22916;SDS011;11624;53.250;7.456;2024-02-26T11:30:23;13.10;;;3.92;;
22916;SDS011;11624;53.250;7.456;2024-02-26T11:32:54;10.18;;;3.63;;
22916;SDS011;11624;53.250;7.456;2024-02-26T11:35:22;11.40;;;3.60;;
22916;SDS011;11624;53.250;7.456;2024-02-26T11:37:52;10.27;;;3.70;;
22916;SDS011;11624;53.250;7.456;2024-02-26T11:40:24;10.32;;;3.80;;
22916;SDS011;11624;53.250;7.456;2024-02-26T11:42:53;11.07;;;3.47;;
22916;SDS011;11624;53.250;7.456;2024-02-26T11:48:22;10.20;;;3.58;;
22916;SDS011;11624;53.250;7.456;2024-02-26T11:50:52;10.23;;;3.60;;
22916;SDS011;11624;53.250;7.456;2024-02-26T11:53:22;14.05;;;4.05;;
22916;SDS011;11624;53.250;7.456;2024-02-26T11:58:58;10.40;;;3.85;;
22916;SDS011;11624;53.250;7.456;2024-02-26T12:01:39;11.43;;;3.75;;
22916;SDS011;11624;53.250;7.456;2024-02-26T12:04:11;12.02;;;3.90;;
22916;SDS011;11624;53.250;7.456;2024-02-26T12:06:42;10.68;;;4.30;;
22916;SDS011;11624;53.250;7.456;2024-02-26T12:09:12;10.85;;;4.20;;
22916;SDS011;11624;53.250;7.456;2024-02-26T12:11:42;14.40;;;4.82;;
22916;SDS011;11624;53.250;7.456;2024-02-26T12:14:11;13.65;;;5.10;;
22916;SDS011;11624;53.250;7.456;2024-02-26T12:16:40;12.93;;;4.63;;
22916;SDS011;11624;53.250;7.456;2024-02-26T12:19:09;13.15;;;5.13;;
22916;SDS011;11624;53.250;7.456;2024-02-26T12:21:38;13.25;;;4.95;;
22916;SDS011;11624;53.250;7.456;2024-02-26T12:24:07;13.00;;;4.88;;
22916;SDS011;11624;53.250;7.456;2024-02-26T12:26:38;13.63;;;5.30;;
22916;SDS011;11624;53.250;7.456;2024-02-26T12:29:08;14.13;;;5.25;;
22916;SDS011;11624;53.250;7.456;2024-02-26T12:31:37;12.30;;;5.50;;
22916;SDS011;11624;53.250;7.456;2024-02-26T12:34:07;13.45;;;5.55;;
22916;SDS011;11624;53.250;7.456;2024-02-26T12:36:37;12.45;;;5.28;;
22916;SDS011;11624;53.250;7.456;2024-02-26T12:39:07;11.90;;;5.07;;
22916;SDS011;11624;53.250;7.456;2024-02-26T12:41:37;13.15;;;5.57;;
22916;SDS011;11624;53.250;7.456;2024-02-26T12:44:08;13.82;;;5.55;;
22916;SDS011;11624;53.250;7.456;2024-02-26T12:46:37;14.75;;;5.53;;
22916;SDS011;11624;53.250;7.456;2024-02-26T12:49:05;15.48;;;6.38;;
22916;SDS011;11624;53.250;7.456;2024-02-26T12:51:34;13.85;;;5.93;;
22916;SDS011;11624;53.250;7.456;2024-02-26T12:54:03;14.85;;;6.28;;
22916;SDS011;11624;53.250;7.456;2024-02-26T12:56:32;18.40;;;6.25;;
22916;SDS011;11624;53.250;7.456;2024-02-26T12:59:00;14.98;;;6.32;;
22916;SDS011;11624;53.250;7.456;2024-02-26T13:01:31;15.38;;;6.28;;
22916;SDS011;11624;53.250;7.456;2024-02-26T13:04:00;16.48;;;6.90;;
22916;SDS011;11624;53.250;7.456;2024-02-26T13:06:33;16.33;;;6.55;;
22916;SDS011;11624;53.250;7.456;2024-02-26T13:09:02;16.08;;;6.25;;
22916;SDS011;11624;53.250;7.456;2024-02-26T13:11:31;17.23;;;6.60;;
22916;SDS011;11624;53.250;7.456;2024-02-26T13:14:00;16.63;;;7.05;;
22916;SDS011;11624;53.250;7.456;2024-02-26T13:16:33;16.02;;;6.63;;
22916;SDS011;11624;53.250;7.456;2024-02-26T13:19:08;15.75;;;6.75;;
22916;SDS011;11624;53.250;7.456;2024-02-26T13:21:37;16.63;;;6.75;;
22916;SDS011;11624;53.250;7.456;2024-02-26T13:24:05;14.68;;;6.32;;
22916;SDS011;11624;53.250;7.456;2024-02-26T13:26:34;17.95;;;6.85;;
22916;SDS011;11624;53.250;7.456;2024-02-26T13:29:03;18.25;;;7.63;;
22916;SDS011;11624;53.250;7.456;2024-02-26T13:31:31;19.92;;;7.70;;
22916;SDS011;11624;53.250;7.456;2024-02-26T13:34:10;18.70;;;7.35;;
22916;SDS011;11624;53.250;7.456;2024-02-26T13:36:39;17.20;;;7.32;;
22916;SDS011;11624;53.250;7.456;2024-02-26T13:39:08;16.48;;;6.97;;
22916;SDS011;11624;53.250;7.456;2024-02-26T13:41:39;17.52;;;7.25;;
22916;SDS011;11624;53.250;7.456;2024-02-26T13:44:10;16.55;;;7.55;;
22916;SDS011;11624;53.250;7.456;2024-02-26T13:46:40;17.27;;;7.32;;
22916;SDS011;11624;53.250;7.456;2024-02-26T13:49:09;16.60;;;6.47;;
22916;SDS011;11624;53.250;7.456;2024-02-26T13:51:38;17.23;;;7.38;;
22916;SDS011;11624;53.250;7.456;2024-02-26T13:54:06;17.65;;;7.53;;
22916;SDS011;11624;53.250;7.456;2024-02-26T13:56:36;19.70;;;7.35;;
22916;SDS011;11624;53.250;7.456;2024-02-26T13:59:05;18.05;;;7.70;;
22916;SDS011;11624;53.250;7.456;2024-02-26T14:01:33;18.48;;;8.02;;
22916;SDS011;11624;53.250;7.456;2024-02-26T14:04:03;17.88;;;7.82;;
22916;SDS011;11624;53.250;7.456;2024-02-26T14:06:32;17.75;;;7.57;;
22916;SDS011;11624;53.250;7.456;2024-02-26T14:09:01;18.02;;;7.50;;
22916;SDS011;11624;53.250;7.456;2024-02-26T14:11:30;20.38;;;8.45;;
22916;SDS011;11624;53.250;7.456;2024-02-26T14:13:59;20.75;;;8.05;;
22916;SDS011;11624;53.250;7.456;2024-02-26T14:16:27;22.90;;;9.02;;
22916;SDS011;11624;53.250;7.456;2024-02-26T14:18:58;18.02;;;7.97;;
22916;SDS011;11624;53.250;7.456;2024-02-26T14:21:28;17.98;;;7.40;;
22916;SDS011;11624;53.250;7.456;2024-02-26T14:23:57;20.42;;;8.15;;
22916;SDS011;11624;53.250;7.456;2024-02-26T14:26:26;19.52;;;8.27;;
22916;SDS011;11624;53.250;7.456;2024-02-26T14:28:55;18.70;;;8.30;;
22916;SDS011;11624;53.250;7.456;2024-02-26T14:31:23;18.60;;;7.57;;
22916;SDS011;11624;53.250;7.456;2024-02-26T14:33:52;17.90;;;7.47;;
22916;SDS011;11624;53.250;7.456;2024-02-26T14:36:21;19.15;;;7.70;;
22916;SDS011;11624;53.250;7.456;2024-02-26T14:38:51;18.55;;;7.95;;
22916;SDS011;11624;53.250;7.456;2024-02-26T14:41:20;18.60;;;7.80;;
22916;SDS011;11624;53.250;7.456;2024-02-26T14:43:48;16.38;;;7.07;;
22916;SDS011;11624;53.250;7.456;2024-02-26T14:46:17;18.02;;;7.70;;
22916;SDS011;11624;53.250;7.456;2024-02-26T14:48:45;16.95;;;7.72;;
22916;SDS011;11624;53.250;7.456;2024-02-26T14:51:14;18.45;;;7.82;;